KMCW

Mason City Municipal Airport

Mason City, Iowa, USA
KMCW 162320Z 1700/1724 13007KT P6SM OVC018 FM170600 14004KT P6SM VCSH OVC015 FM171100 VRB03KT 1 1/2SM BR VCSH OVC008 FM171400 30004KT 2SM BR OVC008 FM171600 30005KT P6SM OVC008 FM171800 31007KT P6SM BKN010
Issued Valid From Valid To
Jan-16 @ 23:20 UTC
(6 hours ago)
Jan-17 @ 00:00 UTC
(5 hours ago)
Jan-18 @ 00:00 UTC
(in 19 hours)
Jan-17 @ 00:00 to Jan-17 @ 06:00
KMCW 162320Z 1700/1724 13007KT P6SM OVC018
Wind Visibility Clouds
130° at 7 knots Greater than 6 miles
  • Overcast at 1,800' AGL
From Jan-17 @ 06:00 to Jan-17 @ 11:00
FM170600 14004KT P6SM VCSH OVC015
Wind Visibility Clouds
140° at 4 knots Greater than 6 miles
  • Overcast at 1,500' AGL
From Jan-17 @ 11:00 to Jan-17 @ 14:00
FM171100 VRB03KT 1 1/2SM BR VCSH OVC008
Wind Visibility Clouds Conditions
Variable at 3 knots 1 1/2 miles
  • Overcast at 800' AGL
  • Mist
From Jan-17 @ 14:00 to Jan-17 @ 16:00
FM171400 30004KT 2SM BR OVC008
Wind Visibility Clouds Conditions
300° at 4 knots 2 miles
  • Overcast at 800' AGL
  • Mist
From Jan-17 @ 16:00 to Jan-17 @ 18:00
FM171600 30005KT P6SM OVC008
Wind Visibility Clouds
300° at 5 knots Greater than 6 miles
  • Overcast at 800' AGL
From Jan-17 @ 18:00 to Jan-18 @ 00:00
FM171800 31007KT P6SM BKN010
Wind Visibility Clouds
310° at 7 knots Greater than 6 miles
  • Broken at 1,000' AGL
KMCW 162320Z 1700/1724 13007KT P6SM OVC018 FM170600 14004KT P6SM VCSH OVC015 FM171100 VRB03KT 1 1/2SM BR VCSH OVC008 FM171400 30004KT 2SM BR OVC008 FM171600 30005KT P6SM OVC008 FM171800 31007KT P6SM BKN010
Issued Jan-16 @ 23:20 UTC
(6 hours ago)
Valid From Jan-17 @ 00:00 UTC
(5 hours ago)
Valid To Jan-18 @ 00:00 UTC
(in 19 hours)
Jan-17 @ 00:00 - Jan-17 @ 06:00
Wind Visibility
130° at 7 knots Greater than 6 miles
Clouds
  • Overcast at 1,800' AGL
From Jan-17 @ 06:00 - Jan-17 @ 11:00
Wind Visibility
140° at 4 knots Greater than 6 miles
Clouds
  • Overcast at 1,500' AGL
From Jan-17 @ 11:00 - Jan-17 @ 14:00
Wind Visibility
Variable at 3 knots 1 1/2 miles
Clouds
  • Overcast at 800' AGL
Conditions
  • Mist
From Jan-17 @ 14:00 - Jan-17 @ 16:00
Wind Visibility
300° at 4 knots 2 miles
Clouds
  • Overcast at 800' AGL
Conditions
  • Mist
From Jan-17 @ 16:00 - Jan-17 @ 18:00
Wind Visibility
300° at 5 knots Greater than 6 miles
Clouds
  • Overcast at 800' AGL
From Jan-17 @ 18:00 - Jan-18 @ 00:00
Wind Visibility
310° at 7 knots Greater than 6 miles
Clouds
  • Broken at 1,000' AGL